Liverpool Bay, Canada
Current Conditions -  °F | °C
As of 8:00 PM on Thursday 18 Dec 2014 (Local Time) from CYUB Reporting Station
Light Snow Light Snow  
Wind Chill: -5°   Ceiling: 3800
Heat Index:   Visibility: 6mi
Dew Point:   Wind: 7mph
Humidity: 72%   Direction: 310°NW
Pressure: 29.76"   Gusts: NA
Location:  69.6°N, 130.9°W
Report Text: CYUB 190300Z 31006KT 6SM -SN OVC038 M14/M18 A2976 RMK SC8SLP078
Loading
Personal Weather Stations






























Interactive Weather Map New forecast layout! Learn more

10-Day Weather Forecast

Advertisements
Track Severe Weather on mobile